Latest Weather Observations for Bairnsdale

IDV60801

Issued at 4:02 pm EST Friday 29 April 2016 (issued every 30 minutes, with the page automatically refreshed every 10 minutes)

About weather observations | Map of weather stations | Latest weather observations for VIC | Other Formats
Station Details ID: 085279 Name: BAIRNSDALE AIRPORT Lat: -37.88 Lon: 147.57 Height: 49.4 m
Data from the previous 72 hours. | See also: Recent months at Bairnsdale
Date/Time
EST
Temp
°C
App
Temp
°C
Dew
Point
Rel
Hum
%
Delta-T
°C
Wind Press
QNH
hPa
Press
MSL
hPa
Rain
since 9 am
mm
Dir
 
Spd
km/h
Gust
km/h
Spd
kts
Gust
kts
29/04:00pm 18.3 17.7 15.6 84 1.6 SSW 13 15 7 8 1014.1 1014.0 0.8
29/03:30pm 18.2 17.1 15.3 83 1.7 SW 15 19 8 10 1014.2 1014.1 0.8
29/03:00pm 18.2 16.8 15.5 84 1.6 WSW 17 22 9 12 1014.0 1013.9 0.8
29/02:30pm 19.4 18.9 15.9 80 2.1 W 13 28 7 15 1013.8 1013.7 0.8
29/02:00pm 20.5 19.9 15.7 74 2.9 WNW 13 17 7 9 1013.3 1013.2 0.2
29/01:30pm 22.9 23.4 15.0 61 4.7 NW 6 7 3 4 1013.0 1012.9 0.0
29/01:00pm 23.8 23.2 13.6 52 6.0 NNE 9 13 5 7 1013.1 1013.0 0.0
29/12:30pm 24.0 23.6 14.1 54 5.8 NNE 9 13 5 7 1013.6 1013.5 0.0
29/12:00pm 24.1 24.2 14.5 55 5.7 N 7 13 4 7 1014.1 1014.0 0.0
29/11:30am 24.1 23.7 14.2 54 5.8 N 9 11 5 6 1014.4 1014.3 0.0
29/11:00am 25.0 23.6 13.5 48 6.7 N 13 19 7 10 1015.0 1014.9 0.0
29/10:30am 24.8 24.7 14.0 51 6.4 NNE 7 11 4 6 1015.3 1015.2 0.0
29/10:00am 23.5 22.9 13.4 53 5.9 NE 9 11 5 6 1015.7 1015.6 0.0
29/09:30am 23.2 21.9 12.5 51 6.1 NE 11 15 6 8 1016.3 1016.3 0.0
29/09:00am 21.6 20.7 12.7 57 5.1 NE 9 11 5 6 1016.7 1016.7 0.0
29/08:30am 20.5 19.2 12.5 60 4.5 ENE 11 13 6 7 1016.7 1016.7 0.0
29/08:00am 18.7 17.8 12.7 68 3.4 ENE 9 11 5 6 1016.6 1016.6 0.0
29/07:30am 17.2 16.5 13.1 77 2.3 NE 9 11 5 6 1016.5 1016.5 0.0
29/07:00am 15.1 14.0 10.7 75 2.3 ESE 7 7 4 4 1016.8 1016.8 0.0
29/06:30am 15.0 15.6 11.8 81 1.7 CALM 0 0 0 0 1016.7 1016.7 0.0
29/06:00am 17.8 16.9 11.4 66 3.5 NNE 7 9 4 5 1016.6 1016.6 0.0
29/05:30am 17.1 16.5 11.8 71 2.9 N 6 9 3 5 1016.5 1016.5 0.0
29/05:00am 18.8 17.3 11.9 64 3.8 NNE 11 13 6 7 1016.6 1016.6 0.0
29/04:30am 16.9 16.1 11.8 72 2.8 N 7 9 4 5 1016.8 1016.8 0.0
29/04:00am 16.6 16.1 12.0 74 2.5 NNE 6 9 3 5 1016.7 1016.7 0.0
29/03:30am 18.5 17.4 11.8 65 3.7 N 9 13 5 7 1016.7 1016.7 0.0
29/03:00am 17.7 16.9 11.7 68 3.3 NW 7 9 4 5 1016.8 1016.8 0.0
29/02:30am 18.9 18.2 11.9 64 3.9 NNW 7 9 4 5 1017.1 1017.1 0.0
29/02:00am 18.4 17.6 11.7 65 3.7 NNW 7 9 4 5 1017.6 1017.6 0.0
29/01:30am 17.4 18.1 12.1 71 2.9 CALM 0 7 0 4 1017.7 1017.7 0.0
29/01:00am 20.0 19.0 11.0 56 4.9 NNE 7 9 4 5 1017.8 1017.8 0.0
29/12:30am 20.8 19.5 11.4 55 5.2 N 9 13 5 7 1018.0 1018.0 0.0
29/12:00am 20.5 19.2 11.4 56 5.0 NNE 9 13 5 7 1018.1 1018.1 0.0
 
Date/Time
EST
Temp
°C
App
Temp
°C
Dew
Point
Rel
Hum
%
Delta-T
°C
Wind Press
QNH
hPa
Press
MSL
hPa
Rain
since 9 am
mm
Dir
 
Spd
km/h
Gust
km/h
Spd
kts
Gust
kts
28/11:30pm 20.0 18.8 11.5 58 4.7 NNE 9 11 5 6 1018.5 1018.5 0.0
28/11:00pm 17.5 16.5 12.2 71 2.9 N 9 13 5 7 1018.5 1018.5 0.0
28/10:30pm 16.8 16.1 11.3 70 3.0 NE 6 9 3 5 1018.8 1018.8 0.0
28/10:00pm 18.1 17.4 11.9 67 3.4 NNE 7 9 4 5 1018.8 1018.8 0.0
28/09:30pm 18.6 16.8 12.1 66 3.6 NE 13 17 7 9 1018.7 1018.7 0.0
28/09:00pm 18.7 17.9 11.8 64 3.8 NE 7 11 4 6 1018.5 1018.5 0.0
28/08:30pm 19.0 17.9 12.0 64 3.9 NNE 9 13 5 7 1018.6 1018.6 0.0
28/08:00pm 19.5 18.4 12.0 62 4.2 N 9 13 5 7 1018.5 1018.5 0.0
28/07:30pm 19.8 18.4 12.1 61 4.3 N 11 17 6 9 1018.5 1018.5 0.0
28/07:00pm 19.2 17.7 12.0 63 4.0 NNE 11 13 6 7 1018.3 1018.3 0.0
28/06:30pm 19.7 18.2 12.0 61 4.3 NNE 11 13 6 7 1018.2 1018.2 0.0
28/06:00pm 20.2 18.7 11.9 59 4.6 NNE 11 13 6 7 1018.1 1018.1 0.0
28/05:30pm 21.3 20.3 12.2 56 5.1 NNE 9 13 5 7 1018.0 1018.0 0.0
28/05:00pm 22.0 20.8 12.8 56 5.2 NE 11 15 6 8 1018.0 1018.0 0.0
28/04:30pm 22.7 22.0 13.2 55 5.5 NNE 9 13 5 7 1017.9 1017.9 0.0
28/04:00pm 23.8 23.7 13.4 52 6.0 N 6 9 3 5 1017.9 1017.9 0.0
28/03:30pm 24.1 23.3 13.0 50 6.4 N 9 11 5 6 1017.9 1017.9 0.0
28/03:00pm 24.8 23.3 13.0 47 6.8 NNW 13 17 7 9 1017.8 1017.8 0.0
28/02:30pm 24.8 23.1 12.4 46 7.1 NNW 13 19 7 10 1017.6 1017.6 0.0
28/02:00pm 25.4 22.3 12.3 44 7.5 NW 20 28 11 15 1017.7 1017.7 0.0
28/01:30pm 26.1 23.2 12.2 42 8.0 NNW 19 28 10 15 1018.0 1018.0 0.0
28/01:00pm 26.1 22.3 12.5 42 7.9 NNW 24 33 13 18 1018.2 1018.2 0.0
28/12:30pm 26.2 22.7 12.3 42 8.0 NNW 22 30 12 16 1018.3 1018.3 0.0
28/12:00pm 25.3 21.3 11.8 43 7.7 NNW 24 35 13 19 1018.5 1018.5 0.0
28/11:30am 24.9 22.0 12.2 45 7.3 NNW 19 28 10 15 1018.9 1018.9 0.0
28/11:00am 23.7 20.8 12.4 49 6.4 NNW 19 24 10 13 1019.1 1019.1 0.0
28/10:30am 24.8 22.6 13.4 49 6.7 NNW 17 28 9 15 1019.1 1019.1 0.0
28/10:00am 24.4 22.5 13.0 49 6.6 NNW 15 22 8 12 1019.1 1019.1 0.0
28/09:30am 22.5 20.6 11.9 51 6.0 N 13 22 7 12 1019.1 1019.1 0.0
28/09:00am 22.2 19.7 12.2 53 5.6 NNW 17 22 9 12 1019.1 1019.1 0.0
28/08:30am 19.9 18.0 11.9 60 4.5 N 13 17 7 9 1018.9 1018.9 0.0
28/08:00am 18.5 16.3 10.8 61 4.2 NNE 13 17 7 9 1018.8 1018.8 0.0
28/07:30am 18.1 15.8 10.5 61 4.1 NNE 13 17 7 9 1018.5 1018.5 0.0
28/07:00am 17.4 15.0 10.1 62 3.9 NNE 13 17 7 9 1018.1 1018.1 0.0
28/06:30am 17.0 15.0 10.1 64 3.7 NNE 11 15 6 8 1018.0 1018.0 0.0
28/06:00am 17.2 15.1 9.9 62 3.8 NNE 11 17 6 9 1018.0 1018.0 0.0
28/05:30am 17.8 15.4 9.9 60 4.2 NNE 13 19 7 10 1017.8 1017.8 0.0
28/05:00am 17.8 15.4 10.2 61 4.0 NNE 13 19 7 10 1017.6 1017.6 0.0
28/04:30am 18.3 14.8 10.2 59 4.3 N 19 26 10 14 1017.3 1017.3 0.0
28/04:00am 17.5 14.7 10.1 62 3.9 N 15 20 8 11 1017.5 1017.5 0.0
28/03:30am 13.7 12.0 9.7 77 2.1 NE 9 13 5 7 1017.3 1017.3 0.0
28/03:00am 13.3 11.1 9.4 77 2.0 NE 11 15 6 8 1017.5 1017.5 0.0
28/02:30am 13.4 11.2 9.5 77 2.0 NE 11 13 6 7 1017.8 1017.8 0.0
28/02:00am 13.5 11.5 8.8 73 2.4 NE 9 11 5 6 1018.1 1018.1 0.0
28/01:30am 14.4 11.8 9.2 71 2.7 NNE 13 17 7 9 1017.9 1017.9 0.0
28/01:00am 13.9 11.9 10.1 78 2.0 NNE 11 17 6 9 1018.1 1018.1 0.0
28/12:30am 13.4 11.9 10.6 83 1.5 NNE 9 13 5 7 1018.2 1018.2 0.0
28/12:00am 13.6 11.9 10.0 79 1.9 NE 9 13 5 7 1018.3 1018.3 0.0
 
Date/Time
EST
Temp
°C
App
Temp
°C
Dew
Point
Rel
Hum
%
Delta-T
°C
Wind Press
QNH
hPa
Press
MSL
hPa
Rain
since 9 am
mm
Dir
 
Spd
km/h
Gust
km/h
Spd
kts
Gust
kts
27/11:30pm 11.3 9.8 8.5 83 1.4 SSE 6 6 3 3 1018.4 1018.4 0.0
27/11:00pm 11.9 9.9 8.6 80 1.6 E 9 11 5 6 1018.5 1018.5 0.0
27/10:30pm 11.9 10.7 9.5 85 1.2 S 6 7 3 4 1018.5 1018.5 0.0
27/10:00pm 13.4 12.6 9.8 79 1.8 NE 4 7 2 4 1018.4 1018.4 0.0
27/09:30pm 16.2 14.2 10.1 67 3.2 ENE 11 13 6 7 1018.4 1018.4 0.0
27/09:00pm 16.5 15.1 9.4 63 3.7 NE 7 11 4 6 1018.7 1018.7 0.0
27/08:30pm 17.4 14.6 10.1 62 3.9 N 15 19 8 10 1018.8 1018.8 0.0
27/08:00pm 13.7 12.0 9.9 78 2.0 NNE 9 11 5 6 1019.1 1019.1 0.0
27/07:30pm 13.8 13.0 11.0 83 1.5 NNW 6 7 3 4 1019.0 1019.0 0.0
27/07:00pm 13.7 13.9 10.7 82 1.6 CALM 0 0 0 0 1018.7 1018.7 0.0
27/06:30pm 15.6 14.8 11.6 77 2.2 N 7 11 4 6 1018.1 1018.1 0.0
27/06:00pm 16.4 15.8 12.4 77 2.2 NE 7 9 4 5 1017.8 1017.8 0.0
27/05:30pm 16.9 16.0 11.4 70 3.0 N 7 13 4 7 1017.8 1017.8 0.0
27/05:00pm 19.7 17.8 11.7 60 4.4 ENE 13 17 7 9 1017.7 1017.7 0.0
27/04:30pm 22.0 19.0 10.8 49 6.2 ENE 17 26 9 14 1017.7 1017.7 0.0
27/04:00pm 23.6 20.7 12.3 49 6.4 ENE 19 22 10 12 1018.0 1018.0 0.0
27/03:30pm 23.4 21.7 12.4 50 6.3 NE 13 19 7 10 1018.1 1018.1 0.0
27/03:00pm 24.3 22.7 10.2 41 7.8 NE 9 15 5 8 1018.0 1018.0 0.0
27/02:30pm 24.9 23.5 10.8 41 7.9 NE 9 13 5 7 1018.2 1018.2 0.0
27/02:00pm 24.8 23.1 9.9 39 8.2 NE 9 15 5 8 1018.3 1018.3 0.0
27/01:30pm 25.8 23.5 10.4 38 8.6 ENE 13 17 7 9 1018.5 1018.5 0.0
27/01:00pm 25.8 24.0 9.6 36 8.9 NNE 9 15 5 8 1018.8 1018.8 0.0
27/12:30pm 25.6 23.7 9.0 35 9.0 NNE 9 19 5 10 1019.3 1019.3 0.0
27/12:00pm 24.9 22.9 8.8 36 8.7 NNE 9 17 5 9 1020.0 1020.0 0.0
27/11:30am 25.1 23.5 10.2 39 8.3 NNE 9 15 5 8 1020.4 1020.4 0.0
27/11:00am 23.7 21.4 10.4 43 7.3 NE 13 19 7 10 1020.8 1020.8 0.0
27/10:30am 22.7 20.7 10.2 45 6.8 NE 11 13 6 7 1021.2 1021.2 0.0
27/10:00am 21.1 19.6 12.0 56 5.1 NE 11 13 6 7 1021.5 1021.5 0.0
27/09:30am 18.3 16.7 11.4 64 3.8 NE 11 13 6 7 1021.9 1021.9 0.0
27/09:00am 16.0 14.8 10.3 69 3.0 NNE 7 9 4 5 1022.1 1022.1 0.0
27/08:30am 12.9 11.1 9.4 79 1.8 NNW 9 11 5 6 1022.1 1022.1 0.0
27/08:00am 10.5 9.1 8.9 90 0.8 NNW 6 9 3 5 1021.9 1021.9 0.0
27/07:30am 8.8 7.1 7.7 93 0.5 NNE 6 9 3 5 1021.5 1021.5 0.0
27/07:00am 8.4 5.3 7.3 93 0.5 NNE 13 15 7 8 1021.3 1021.3 0.0
27/06:30am 6.5 5.7 6.5 100 0.0 CALM 0 0 0 0 1021.3 1021.3 0.0
27/06:00am 7.2 5.2 7.2 100 0.0 NNE 7 9 4 5 1021.4 1021.4 0.0
27/05:30am 7.2 5.2 7.2 100 0.0 N 7 9 4 5 1021.5 1021.5 0.0
27/05:00am 6.7 4.6 6.7 100 0.0 NW 7 9 4 5 1021.7 1021.7 0.0
27/04:35am 7.6 5.3 7.6 100 0.0 N 9 11 5 6 1021.4 1021.4 0.0
27/04:30am 7.9 5.7 7.9 100 0.0 N 9 11 5 6 1021.3 1021.3 0.0
27/04:00am 6.6 4.5 6.6 100 0.0 N 7 9 4 5 1021.3 1021.3 0.0
27/03:30am 6.2 5.3 6.2 100 0.0 CALM 0 0 0 0 1021.4 1021.4 0.0
27/03:11am 6.4 5.6 6.4 100 0.0 CALM 0 0 0 0 1021.5 1021.5 0.0
27/03:00am 6.8 6.1 6.8 100 0.0 CALM 0 0 0 0 1021.5 1021.5 0.0
27/02:46am 6.8 6.1 6.8 100 0.0 CALM 0 0 0 0 1021.6 1021.6 0.0
27/02:32am 6.9 5.4 6.9 100 0.0 W 4 6 2 3 1021.7 1021.7 0.0
27/02:30am 6.8 4.9 6.8 100 0.0 W 6 6 3 3 1021.7 1021.7 0.0
27/02:00am 7.2 5.4 7.2 100 0.0 W 6 7 3 4 1022.1 1022.1 0.0
27/01:30am 8.8 6.8 8.8 100 0.0 NNW 9 11 5 6 1022.2 1022.2 0.0
27/01:00am 8.5 6.8 8.5 100 0.0 N 7 9 4 5 1022.5 1022.5 0.0
27/12:30am 9.2 7.6 8.7 97 0.2 N 7 11 4 6 1022.7 1022.7 0.0
27/12:00am 9.3 7.1 9.3 100 0.0 NW 11 15 6 8 1022.8 1022.8 0.0
 
Date/Time
EST
Temp
°C
App
Temp
°C
Dew
Point
Rel
Hum
%
Delta-T
°C
Wind Press
QNH
hPa
Press
MSL
hPa
Rain
since 9 am
mm
Dir
 
Spd
km/h
Gust
km/h
Spd
kts
Gust
kts
26/11:30pm 9.0 7.1 9.0 100 0.0 NW 9 13 5 7 1023.1 1023.1 0.0
26/11:00pm 9.7 7.8 9.2 97 0.2 NNW 9 11 5 6 1023.2 1023.2 0.0
26/10:30pm 10.9 9.4 10.7 99 0.1 NNW 9 9 5 5 1023.6 1023.6 0.0
26/10:00pm 10.8 9.3 9.1 89 0.8 N 7 9 4 5 1023.9 1023.9 0.0
26/09:30pm 11.4 11.3 9.5 88 1.0 CALM 0 0 0 0 1024.1 1024.1 0.0
26/09:00pm 14.2 13.0 10.2 77 2.1 E 7 9 4 5 1024.3 1024.3 0.0
26/08:30pm 13.5 11.9 10.3 81 1.7 E 9 11 5 6 1024.5 1024.5 0.0
26/08:00pm 13.0 11.8 10.2 83 1.4 ESE 7 9 4 5 1024.6 1024.6 0.0
26/07:30pm 15.8 14.0 11.0 73 2.6 ENE 11 13 6 7 1024.6 1024.6 0.0
26/07:00pm 15.8 13.3 11.0 73 2.6 ENE 15 17 8 9 1024.6 1024.6 0.0
26/06:30pm 15.6 13.4 10.8 73 2.6 E 13 13 7 7 1024.6 1024.6 0.0
26/06:00pm 16.8 15.1 11.3 70 3.0 E 11 13 6 7 1024.5 1024.5 0.0
26/05:56pm 16.9 14.9 11.4 70 3.0 E 13 15 7 8 1024.5 1024.5 0.0
26/05:43pm 17.2 14.9 11.9 71 2.9 E 15 17 8 9 1024.3 1024.3 0.0
26/05:30pm 17.6 15.7 10.5 63 3.8 E 11 17 6 9 1024.2 1024.2 0.0
26/05:00pm 20.0 17.9 9.9 52 5.4 E 11 15 6 8 1024.3 1024.3 0.0
26/04:30pm 21.5 18.9 9.4 46 6.5 ESE 13 17 7 9 1024.4 1024.4 0.0

Other Formats:

Comma delimited format used in spreadsheet applications
http://www.bom.gov.au/fwo/IDV60801/IDV60801.94912.axf

JavaScript Object Notation format (JSON) in row-major order
http://www.bom.gov.au/fwo/IDV60801/IDV60801.94912.json